sensor_id;sensor_type;location;lat;lon;timestamp;P1;durP1;ratioP1;P2;durP2;ratioP2
40997;SDS011;26740;45.944;12.480;2022-12-07T00:01:38;19.95;;;11.75;;
40997;SDS011;26740;45.944;12.480;2022-12-07T00:06:35;19.70;;;10.48;;
40997;SDS011;26740;45.944;12.480;2022-12-07T00:09:03;25.02;;;12.82;;
40997;SDS011;26740;45.944;12.480;2022-12-07T00:11:30;15.77;;;9.75;;
40997;SDS011;26740;45.944;12.480;2022-12-07T00:14:00;15.88;;;9.13;;
40997;SDS011;26740;45.944;12.480;2022-12-07T00:16:28;19.27;;;9.57;;
40997;SDS011;26740;45.944;12.480;2022-12-07T00:18:56;18.63;;;9.07;;
40997;SDS011;26740;45.944;12.480;2022-12-07T00:21:26;16.00;;;8.05;;
40997;SDS011;26740;45.944;12.480;2022-12-07T00:23:54;16.38;;;8.30;;
40997;SDS011;26740;45.944;12.480;2022-12-07T00:26:21;14.80;;;8.73;;
40997;SDS011;26740;45.944;12.480;2022-12-07T00:29:02;13.07;;;7.85;;
40997;SDS011;26740;45.944;12.480;2022-12-07T00:31:31;20.40;;;8.40;;
40997;SDS011;26740;45.944;12.480;2022-12-07T00:34:01;13.73;;;7.78;;
40997;SDS011;26740;45.944;12.480;2022-12-07T00:36:26;21.70;;;10.18;;
40997;SDS011;26740;45.944;12.480;2022-12-07T00:38:52;15.23;;;8.65;;
40997;SDS011;26740;45.944;12.480;2022-12-07T00:41:20;15.18;;;8.50;;
40997;SDS011;26740;45.944;12.480;2022-12-07T00:43:48;14.40;;;7.90;;
40997;SDS011;26740;45.944;12.480;2022-12-07T00:46:15;18.92;;;7.75;;
40997;SDS011;26740;45.944;12.480;2022-12-07T00:48:43;14.18;;;7.63;;
40997;SDS011;26740;45.944;12.480;2022-12-07T00:51:10;15.65;;;7.65;;
40997;SDS011;26740;45.944;12.480;2022-12-07T00:53:37;13.35;;;6.43;;
40997;SDS011;26740;45.944;12.480;2022-12-07T00:56:23;15.25;;;7.97;;
40997;SDS011;26740;45.944;12.480;2022-12-07T00:58:55;14.10;;;8.07;;
40997;SDS011;26740;45.944;12.480;2022-12-07T01:01:27;14.52;;;8.10;;
40997;SDS011;26740;45.944;12.480;2022-12-07T01:03:55;25.63;;;8.40;;
40997;SDS011;26740;45.944;12.480;2022-12-07T01:06:21;13.23;;;6.97;;
40997;SDS011;26740;45.944;12.480;2022-12-07T01:08:48;17.30;;;7.55;;
40997;SDS011;26740;45.944;12.480;2022-12-07T01:11:15;45.53;;;9.98;;
40997;SDS011;26740;45.944;12.480;2022-12-07T01:13:44;17.60;;;7.90;;
40997;SDS011;26740;45.944;12.480;2022-12-07T01:16:11;35.85;;;7.72;;
40997;SDS011;26740;45.944;12.480;2022-12-07T01:18:39;32.75;;;8.05;;
40997;SDS011;26740;45.944;12.480;2022-12-07T01:21:13;56.33;;;8.55;;
40997;SDS011;26740;45.944;12.480;2022-12-07T01:23:49;21.50;;;8.95;;
40997;SDS011;26740;45.944;12.480;2022-12-07T01:26:17;13.25;;;7.72;;
40997;SDS011;26740;45.944;12.480;2022-12-07T01:28:46;11.80;;;8.10;;
40997;SDS011;26740;45.944;12.480;2022-12-07T01:31:13;14.73;;;8.68;;
40997;SDS011;26740;45.944;12.480;2022-12-07T01:33:41;15.73;;;8.77;;
40997;SDS011;26740;45.944;12.480;2022-12-07T01:38:42;32.00;;;8.25;;
40997;SDS011;26740;45.944;12.480;2022-12-07T01:41:09;12.45;;;7.63;;
40997;SDS011;26740;45.944;12.480;2022-12-07T01:43:35;15.07;;;8.93;;
40997;SDS011;26740;45.944;12.480;2022-12-07T01:46:03;16.60;;;9.43;;
40997;SDS011;26740;45.944;12.480;2022-12-07T01:48:34;15.02;;;8.80;;
40997;SDS011;26740;45.944;12.480;2022-12-07T01:51:05;13.85;;;8.32;;
40997;SDS011;26740;45.944;12.480;2022-12-07T01:53:36;13.52;;;7.20;;
40997;SDS011;26740;45.944;12.480;2022-12-07T01:56:08;16.27;;;8.88;;
40997;SDS011;26740;45.944;12.480;2022-12-07T01:58:40;28.23;;;12.05;;
40997;SDS011;26740;45.944;12.480;2022-12-07T02:01:06;22.17;;;12.18;;
40997;SDS011;26740;45.944;12.480;2022-12-07T02:03:34;22.15;;;11.32;;
40997;SDS011;26740;45.944;12.480;2022-12-07T02:06:06;19.85;;;10.20;;
40997;SDS011;26740;45.944;12.480;2022-12-07T02:08:33;20.38;;;10.68;;
40997;SDS011;26740;45.944;12.480;2022-12-07T02:11:00;22.17;;;10.85;;
40997;SDS011;26740;45.944;12.480;2022-12-07T02:13:28;20.85;;;8.55;;
40997;SDS011;26740;45.944;12.480;2022-12-07T02:16:04;17.40;;;8.93;;
40997;SDS011;26740;45.944;12.480;2022-12-07T02:30:10;14.95;;;7.75;;
40997;SDS011;26740;45.944;12.480;2022-12-07T02:35:28;19.52;;;9.65;;
40997;SDS011;26740;45.944;12.480;2022-12-07T02:38:20;16.17;;;8.77;;
40997;SDS011;26740;45.944;12.480;2022-12-07T02:43:24;20.35;;;10.45;;
40997;SDS011;26740;45.944;12.480;2022-12-07T02:45:53;15.40;;;9.65;;
40997;SDS011;26740;45.944;12.480;2022-12-07T02:48:23;19.40;;;9.13;;
40997;SDS011;26740;45.944;12.480;2022-12-07T02:50:52;16.20;;;9.32;;
40997;SDS011;26740;45.944;12.480;2022-12-07T02:58:54;21.52;;;9.63;;
40997;SDS011;26740;45.944;12.480;2022-12-07T03:09:58;15.63;;;8.73;;
40997;SDS011;26740;45.944;12.480;2022-12-07T03:12:29;17.48;;;9.75;;
40997;SDS011;26740;45.944;12.480;2022-12-07T03:15:12;19.65;;;11.13;;
40997;SDS011;26740;45.944;12.480;2022-12-07T03:17:42;21.40;;;10.85;;
40997;SDS011;26740;45.944;12.480;2022-12-07T03:20:11;19.52;;;10.15;;
40997;SDS011;26740;45.944;12.480;2022-12-07T03:22:41;14.95;;;9.15;;
40997;SDS011;26740;45.944;12.480;2022-12-07T03:25:10;17.98;;;8.35;;
40997;SDS011;26740;45.944;12.480;2022-12-07T03:27:54;15.77;;;8.90;;
40997;SDS011;26740;45.944;12.480;2022-12-07T03:30:42;14.75;;;8.60;;
40997;SDS011;26740;45.944;12.480;2022-12-07T03:33:18;11.50;;;7.35;;
40997;SDS011;26740;45.944;12.480;2022-12-07T03:35:52;14.57;;;7.63;;
40997;SDS011;26740;45.944;12.480;2022-12-07T03:38:52;13.20;;;6.07;;
40997;SDS011;26740;45.944;12.480;2022-12-07T03:41:34;14.25;;;6.78;;
40997;SDS011;26740;45.944;12.480;2022-12-07T03:44:02;17.05;;;8.13;;
40997;SDS011;26740;45.944;12.480;2022-12-07T03:49:30;15.73;;;7.30;;
40997;SDS011;26740;45.944;12.480;2022-12-07T03:52:22;13.88;;;7.22;;
40997;SDS011;26740;45.944;12.480;2022-12-07T03:54:56;9.43;;;7.05;;
40997;SDS011;26740;45.944;12.480;2022-12-07T03:57:23;15.82;;;7.15;;
40997;SDS011;26740;45.944;12.480;2022-12-07T03:59:51;9.75;;;6.03;;
40997;SDS011;26740;45.944;12.480;2022-12-07T04:02:19;9.90;;;5.90;;
40997;SDS011;26740;45.944;12.480;2022-12-07T04:04:45;13.43;;;6.88;;
40997;SDS011;26740;45.944;12.480;2022-12-07T04:07:11;14.65;;;5.95;;
40997;SDS011;26740;45.944;12.480;2022-12-07T04:09:37;13.63;;;6.22;;
40997;SDS011;26740;45.944;12.480;2022-12-07T04:12:03;9.23;;;6.03;;
40997;SDS011;26740;45.944;12.480;2022-12-07T04:14:29;10.15;;;5.90;;
40997;SDS011;26740;45.944;12.480;2022-12-07T04:16:56;9.73;;;5.80;;
40997;SDS011;26740;45.944;12.480;2022-12-07T04:19:24;18.48;;;7.38;;
40997;SDS011;26740;45.944;12.480;2022-12-07T04:21:54;18.13;;;6.70;;
40997;SDS011;26740;45.944;12.480;2022-12-07T04:24:21;12.93;;;6.30;;
40997;SDS011;26740;45.944;12.480;2022-12-07T04:26:48;12.52;;;6.45;;
40997;SDS011;26740;45.944;12.480;2022-12-07T04:29:13;10.75;;;6.53;;
40997;SDS011;26740;45.944;12.480;2022-12-07T04:31:39;12.77;;;6.43;;
40997;SDS011;26740;45.944;12.480;2022-12-07T04:34:06;11.88;;;6.30;;
40997;SDS011;26740;45.944;12.480;2022-12-07T04:36:32;10.73;;;6.07;;
40997;SDS011;26740;45.944;12.480;2022-12-07T04:38:59;10.18;;;6.80;;
40997;SDS011;26740;45.944;12.480;2022-12-07T04:41:25;13.77;;;7.30;;
40997;SDS011;26740;45.944;12.480;2022-12-07T04:43:57;11.18;;;5.55;;
40997;SDS011;26740;45.944;12.480;2022-12-07T04:46:25;11.43;;;6.30;;
40997;SDS011;26740;45.944;12.480;2022-12-07T04:48:52;11.93;;;6.82;;
40997;SDS011;26740;45.944;12.480;2022-12-07T04:51:20;13.35;;;5.95;;
40997;SDS011;26740;45.944;12.480;2022-12-07T04:53:48;12.93;;;6.40;;
40997;SDS011;26740;45.944;12.480;2022-12-07T04:56:14;9.63;;;5.90;;
40997;SDS011;26740;45.944;12.480;2022-12-07T04:58:41;11.02;;;6.25;;
40997;SDS011;26740;45.944;12.480;2022-12-07T05:01:08;8.80;;;5.13;;
40997;SDS011;26740;45.944;12.480;2022-12-07T05:03:35;11.70;;;5.68;;
40997;SDS011;26740;45.944;12.480;2022-12-07T05:06:01;10.95;;;5.80;;
40997;SDS011;26740;45.944;12.480;2022-12-07T05:08:28;13.07;;;6.43;;
40997;SDS011;26740;45.944;12.480;2022-12-07T05:10:53;16.48;;;6.85;;
40997;SDS011;26740;45.944;12.480;2022-12-07T05:13:19;11.50;;;6.30;;
40997;SDS011;26740;45.944;12.480;2022-12-07T05:15:46;12.35;;;4.97;;
40997;SDS011;26740;45.944;12.480;2022-12-07T05:18:12;9.05;;;4.90;;
40997;SDS011;26740;45.944;12.480;2022-12-07T05:20:41;7.85;;;5.18;;
40997;SDS011;26740;45.944;12.480;2022-12-07T05:23:07;9.60;;;5.60;;
40997;SDS011;26740;45.944;12.480;2022-12-07T05:25:33;8.50;;;5.47;;
40997;SDS011;26740;45.944;12.480;2022-12-07T05:27:59;10.43;;;5.93;;
40997;SDS011;26740;45.944;12.480;2022-12-07T05:30:25;10.82;;;5.00;;
40997;SDS011;26740;45.944;12.480;2022-12-07T05:32:51;8.77;;;5.13;;
40997;SDS011;26740;45.944;12.480;2022-12-07T05:35:17;8.52;;;5.13;;
40997;SDS011;26740;45.944;12.480;2022-12-07T05:37:43;9.40;;;5.78;;
40997;SDS011;26740;45.944;12.480;2022-12-07T05:40:11;6.93;;;4.45;;
40997;SDS011;26740;45.944;12.480;2022-12-07T05:42:38;6.93;;;4.13;;
40997;SDS011;26740;45.944;12.480;2022-12-07T05:45:04;9.10;;;4.35;;
40997;SDS011;26740;45.944;12.480;2022-12-07T05:47:31;9.88;;;4.82;;
40997;SDS011;26740;45.944;12.480;2022-12-07T05:49:57;9.63;;;4.80;;
40997;SDS011;26740;45.944;12.480;2022-12-07T05:52:23;8.85;;;4.60;;
40997;SDS011;26740;45.944;12.480;2022-12-07T05:54:48;8.55;;;4.88;;
40997;SDS011;26740;45.944;12.480;2022-12-07T05:57:14;11.95;;;5.78;;
40997;SDS011;26740;45.944;12.480;2022-12-07T05:59:40;7.15;;;4.57;;
40997;SDS011;26740;45.944;12.480;2022-12-07T06:02:07;6.65;;;4.78;;
40997;SDS011;26740;45.944;12.480;2022-12-07T06:04:36;8.85;;;5.43;;
40997;SDS011;26740;45.944;12.480;2022-12-07T06:07:03;9.85;;;5.30;;
40997;SDS011;26740;45.944;12.480;2022-12-07T06:09:30;8.57;;;5.18;;
40997;SDS011;26740;45.944;12.480;2022-12-07T06:11:56;15.82;;;5.50;;
40997;SDS011;26740;45.944;12.480;2022-12-07T06:14:41;8.45;;;5.22;;
40997;SDS011;26740;45.944;12.480;2022-12-07T06:17:07;8.50;;;5.10;;
40997;SDS011;26740;45.944;12.480;2022-12-07T06:19:33;10.52;;;5.40;;
40997;SDS011;26740;45.944;12.480;2022-12-07T06:22:00;11.38;;;6.15;;
40997;SDS011;26740;45.944;12.480;2022-12-07T06:24:27;10.40;;;6.22;;
40997;SDS011;26740;45.944;12.480;2022-12-07T06:26:53;12.80;;;6.72;;
40997;SDS011;26740;45.944;12.480;2022-12-07T06:29:19;10.90;;;5.18;;
40997;SDS011;26740;45.944;12.480;2022-12-07T06:31:44;7.95;;;3.95;;
40997;SDS011;26740;45.944;12.480;2022-12-07T06:34:11;10.30;;;5.35;;
40997;SDS011;26740;45.944;12.480;2022-12-07T06:36:39;9.52;;;5.55;;
40997;SDS011;26740;45.944;12.480;2022-12-07T06:39:05;11.82;;;5.38;;
40997;SDS011;26740;45.944;12.480;2022-12-07T06:41:33;10.73;;;5.65;;
40997;SDS011;26740;45.944;12.480;2022-12-07T06:43:59;15.57;;;5.75;;
40997;SDS011;26740;45.944;12.480;2022-12-07T06:46:25;11.18;;;5.45;;
40997;SDS011;26740;45.944;12.480;2022-12-07T06:48:51;15.07;;;5.57;;
40997;SDS011;26740;45.944;12.480;2022-12-07T06:51:17;11.10;;;5.47;;
40997;SDS011;26740;45.944;12.480;2022-12-07T06:53:44;11.73;;;6.32;;
40997;SDS011;26740;45.944;12.480;2022-12-07T06:56:09;14.73;;;6.20;;
40997;SDS011;26740;45.944;12.480;2022-12-07T06:58:35;12.30;;;5.35;;
40997;SDS011;26740;45.944;12.480;2022-12-07T07:01:02;9.23;;;5.18;;
40997;SDS011;26740;45.944;12.480;2022-12-07T07:03:28;10.88;;;5.75;;
40997;SDS011;26740;45.944;12.480;2022-12-07T07:05:53;11.10;;;6.18;;
40997;SDS011;26740;45.944;12.480;2022-12-07T07:08:19;10.95;;;6.07;;
40997;SDS011;26740;45.944;12.480;2022-12-07T07:10:45;12.80;;;6.22;;
40997;SDS011;26740;45.944;12.480;2022-12-07T07:13:10;13.05;;;5.35;;
40997;SDS011;26740;45.944;12.480;2022-12-07T07:15:37;16.05;;;5.88;;
40997;SDS011;26740;45.944;12.480;2022-12-07T07:18:04;15.75;;;6.63;;
40997;SDS011;26740;45.944;12.480;2022-12-07T07:20:29;17.63;;;7.15;;
40997;SDS011;26740;45.944;12.480;2022-12-07T07:22:55;12.57;;;6.70;;
40997;SDS011;26740;45.944;12.480;2022-12-07T07:25:21;12.77;;;7.20;;
40997;SDS011;26740;45.944;12.480;2022-12-07T07:27:47;12.02;;;7.22;;
40997;SDS011;26740;45.944;12.480;2022-12-07T07:30:12;17.48;;;9.82;;
40997;SDS011;26740;45.944;12.480;2022-12-07T07:32:38;28.27;;;11.55;;
40997;SDS011;26740;45.944;12.480;2022-12-07T07:35:04;25.90;;;12.85;;
40997;SDS011;26740;45.944;12.480;2022-12-07T07:37:30;21.52;;;11.65;;
40997;SDS011;26740;45.944;12.480;2022-12-07T07:39:55;22.67;;;11.95;;
40997;SDS011;26740;45.944;12.480;2022-12-07T07:42:21;23.08;;;13.05;;
40997;SDS011;26740;45.944;12.480;2022-12-07T07:44:47;24.35;;;11.63;;
40997;SDS011;26740;45.944;12.480;2022-12-07T07:47:13;22.23;;;13.43;;
40997;SDS011;26740;45.944;12.480;2022-12-07T07:49:38;19.80;;;9.82;;
40997;SDS011;26740;45.944;12.480;2022-12-07T07:52:05;19.60;;;11.48;;
40997;SDS011;26740;45.944;12.480;2022-12-07T07:54:31;16.00;;;10.85;;
40997;SDS011;26740;45.944;12.480;2022-12-07T07:56:57;19.85;;;11.88;;
40997;SDS011;26740;45.944;12.480;2022-12-07T07:59:23;14.10;;;9.50;;
40997;SDS011;26740;45.944;12.480;2022-12-07T08:01:49;18.77;;;10.25;;
40997;SDS011;26740;45.944;12.480;2022-12-07T08:04:15;16.20;;;10.43;;
40997;SDS011;26740;45.944;12.480;2022-12-07T08:06:41;15.23;;;10.00;;
40997;SDS011;26740;45.944;12.480;2022-12-07T08:09:07;17.13;;;11.40;;
40997;SDS011;26740;45.944;12.480;2022-12-07T08:11:33;15.10;;;9.55;;
40997;SDS011;26740;45.944;12.480;2022-12-07T08:14:00;18.13;;;11.70;;
40997;SDS011;26740;45.944;12.480;2022-12-07T08:16:25;15.52;;;9.52;;
40997;SDS011;26740;45.944;12.480;2022-12-07T08:18:52;19.15;;;11.55;;
40997;SDS011;26740;45.944;12.480;2022-12-07T08:21:17;17.95;;;10.98;;
40997;SDS011;26740;45.944;12.480;2022-12-07T08:23:43;20.27;;;10.95;;
40997;SDS011;26740;45.944;12.480;2022-12-07T08:26:12;20.27;;;11.43;;
40997;SDS011;26740;45.944;12.480;2022-12-07T08:28:40;20.00;;;12.95;;
40997;SDS011;26740;45.944;12.480;2022-12-07T08:31:10;21.38;;;12.48;;
40997;SDS011;26740;45.944;12.480;2022-12-07T08:33:41;23.20;;;12.38;;
40997;SDS011;26740;45.944;12.480;2022-12-07T08:36:08;18.73;;;10.95;;
40997;SDS011;26740;45.944;12.480;2022-12-07T08:38:35;21.67;;;9.73;;
40997;SDS011;26740;45.944;12.480;2022-12-07T08:41:02;20.85;;;9.70;;
40997;SDS011;26740;45.944;12.480;2022-12-07T08:43:29;15.07;;;9.75;;
40997;SDS011;26740;45.944;12.480;2022-12-07T08:48:53;18.63;;;8.73;;
40997;SDS011;26740;45.944;12.480;2022-12-07T08:51:43;13.68;;;9.00;;
40997;SDS011;26740;45.944;12.480;2022-12-07T08:54:10;10.68;;;8.30;;
40997;SDS011;26740;45.944;12.480;2022-12-07T08:59:05;10.63;;;7.55;;
40997;SDS011;26740;45.944;12.480;2022-12-07T09:01:32;12.98;;;6.80;;
40997;SDS011;26740;45.944;12.480;2022-12-07T09:03:58;12.30;;;6.95;;
40997;SDS011;26740;45.944;12.480;2022-12-07T09:06:24;13.27;;;7.57;;
40997;SDS011;26740;45.944;12.480;2022-12-07T09:08:50;12.15;;;7.88;;
40997;SDS011;26740;45.944;12.480;2022-12-07T09:11:20;17.70;;;8.32;;
40997;SDS011;26740;45.944;12.480;2022-12-07T09:13:45;10.45;;;7.88;;
40997;SDS011;26740;45.944;12.480;2022-12-07T09:16:11;13.95;;;8.88;;
40997;SDS011;26740;45.944;12.480;2022-12-07T09:18:36;10.25;;;6.90;;
40997;SDS011;26740;45.944;12.480;2022-12-07T09:21:03;23.10;;;7.35;;
40997;SDS011;26740;45.944;12.480;2022-12-07T09:23:29;10.60;;;5.45;;
40997;SDS011;26740;45.944;12.480;2022-12-07T09:25:58;8.45;;;5.30;;
40997;SDS011;26740;45.944;12.480;2022-12-07T09:28:27;8.13;;;5.55;;
40997;SDS011;26740;45.944;12.480;2022-12-07T09:30:53;8.65;;;6.38;;
40997;SDS011;26740;45.944;12.480;2022-12-07T09:33:18;7.57;;;5.60;;
40997;SDS011;26740;45.944;12.480;2022-12-07T09:35:48;12.80;;;6.70;;
40997;SDS011;26740;45.944;12.480;2022-12-07T09:38:15;13.57;;;7.97;;
40997;SDS011;26740;45.944;12.480;2022-12-07T09:40:42;10.32;;;5.90;;
40997;SDS011;26740;45.944;12.480;2022-12-07T09:43:15;18.90;;;5.70;;
40997;SDS011;26740;45.944;12.480;2022-12-07T09:45:44;14.73;;;7.82;;
40997;SDS011;26740;45.944;12.480;2022-12-07T09:48:17;22.33;;;9.80;;
40997;SDS011;26740;45.944;12.480;2022-12-07T09:50:45;19.55;;;9.88;;
40997;SDS011;26740;45.944;12.480;2022-12-07T09:53:14;16.38;;;10.98;;
40997;SDS011;26740;45.944;12.480;2022-12-07T09:55:55;16.63;;;10.50;;
40997;SDS011;26740;45.944;12.480;2022-12-07T09:58:22;17.73;;;10.95;;
40997;SDS011;26740;45.944;12.480;2022-12-07T10:03:32;16.33;;;8.90;;
40997;SDS011;26740;45.944;12.480;2022-12-07T10:06:00;17.73;;;10.23;;
40997;SDS011;26740;45.944;12.480;2022-12-07T10:08:27;14.98;;;9.20;;
40997;SDS011;26740;45.944;12.480;2022-12-07T10:10:54;14.80;;;10.77;;
40997;SDS011;26740;45.944;12.480;2022-12-07T10:13:22;13.07;;;8.57;;
40997;SDS011;26740;45.944;12.480;2022-12-07T10:18:51;17.88;;;9.18;;
40997;SDS011;26740;45.944;12.480;2022-12-07T10:21:18;10.90;;;7.78;;
40997;SDS011;26740;45.944;12.480;2022-12-07T10:23:59;12.88;;;8.27;;
40997;SDS011;26740;45.944;12.480;2022-12-07T10:31:57;14.15;;;7.95;;
40997;SDS011;26740;45.944;12.480;2022-12-07T10:34:34;10.52;;;7.32;;
40997;SDS011;26740;45.944;12.480;2022-12-07T10:37:21;11.07;;;7.10;;
40997;SDS011;26740;45.944;12.480;2022-12-07T10:39:51;12.85;;;6.55;;
40997;SDS011;26740;45.944;12.480;2022-12-07T10:42:20;13.80;;;7.43;;
40997;SDS011;26740;45.944;12.480;2022-12-07T10:45:06;9.65;;;6.72;;
40997;SDS011;26740;45.944;12.480;2022-12-07T10:53:18;10.07;;;6.80;;
40997;SDS011;26740;45.944;12.480;2022-12-07T11:15:16;6.18;;;4.35;;
40997;SDS011;26740;45.944;12.480;2022-12-07T11:17:46;7.10;;;4.13;;
40997;SDS011;26740;45.944;12.480;2022-12-07T11:20:39;2.67;;;1.10;;
40997;SDS011;26740;45.944;12.480;2022-12-07T11:23:30;1.30;;;0.80;;
40997;SDS011;26740;45.944;12.480;2022-12-07T11:26:24;2.67;;;1.20;;
40997;SDS011;26740;45.944;12.480;2022-12-07T11:37:28;3.00;;;1.60;;
40997;SDS011;26740;45.944;12.480;2022-12-07T11:40:17;3.08;;;2.35;;
40997;SDS011;26740;45.944;12.480;2022-12-07T11:43:01;4.95;;;1.90;;
40997;SDS011;26740;45.944;12.480;2022-12-07T11:45:35;3.83;;;1.90;;
40997;SDS011;26740;45.944;12.480;2022-12-07T11:48:10;2.40;;;1.88;;
40997;SDS011;26740;45.944;12.480;2022-12-07T11:50:59;2.13;;;1.70;;
40997;SDS011;26740;45.944;12.480;2022-12-07T12:03:50;2.38;;;1.48;;
40997;SDS011;26740;45.944;12.480;2022-12-07T12:06:19;2.67;;;2.03;;
40997;SDS011;26740;45.944;12.480;2022-12-07T12:08:46;2.72;;;2.17;;
40997;SDS011;26740;45.944;12.480;2022-12-07T12:25:19;2.45;;;1.50;;
40997;SDS011;26740;45.944;12.480;2022-12-07T12:27:50;2.70;;;0.52;;
40997;SDS011;26740;45.944;12.480;2022-12-07T12:30:38;2.10;;;1.00;;
40997;SDS011;26740;45.944;12.480;2022-12-07T12:33:12;1.13;;;0.80;;
40997;SDS011;26740;45.944;12.480;2022-12-07T12:35:42;1.77;;;0.85;;
40997;SDS011;26740;45.944;12.480;2022-12-07T12:38:28;3.72;;;0.75;;
40997;SDS011;26740;45.944;12.480;2022-12-07T12:40:58;4.50;;;1.20;;
40997;SDS011;26740;45.944;12.480;2022-12-07T12:43:45;1.15;;;0.60;;
40997;SDS011;26740;45.944;12.480;2022-12-07T12:51:45;2.90;;;1.30;;
40997;SDS011;26740;45.944;12.480;2022-12-07T12:54:23;5.28;;;1.08;;
40997;SDS011;26740;45.944;12.480;2022-12-07T12:56:52;2.40;;;1.42;;
40997;SDS011;26740;45.944;12.480;2022-12-07T13:00:21;2.53;;;1.30;;
40997;SDS011;26740;45.944;12.480;2022-12-07T13:26:12;5.40;;;1.65;;
40997;SDS011;26740;45.944;12.480;2022-12-07T13:28:43;3.55;;;1.83;;
40997;SDS011;26740;45.944;12.480;2022-12-07T13:33:42;3.22;;;1.33;;
40997;SDS011;26740;45.944;12.480;2022-12-07T13:36:14;2.90;;;1.52;;
40997;SDS011;26740;45.944;12.480;2022-12-07T13:38:48;3.95;;;1.83;;
40997;SDS011;26740;45.944;12.480;2022-12-07T13:41:20;2.58;;;1.23;;
40997;SDS011;26740;45.944;12.480;2022-12-07T13:46:32;5.65;;;2.45;;
40997;SDS011;26740;45.944;12.480;2022-12-07T13:57:16;3.38;;;1.10;;
40997;SDS011;26740;45.944;12.480;2022-12-07T13:59:43;3.33;;;1.67;;
40997;SDS011;26740;45.944;12.480;2022-12-07T14:02:27;2.13;;;1.25;;
40997;SDS011;26740;45.944;12.480;2022-12-07T14:05:06;2.35;;;1.08;;
40997;SDS011;26740;45.944;12.480;2022-12-07T14:07:32;2.45;;;1.52;;
40997;SDS011;26740;45.944;12.480;2022-12-07T14:10:05;3.00;;;1.40;;
40997;SDS011;26740;45.944;12.480;2022-12-07T14:12:32;2.42;;;0.90;;
40997;SDS011;26740;45.944;12.480;2022-12-07T14:15:02;1.77;;;0.80;;
40997;SDS011;26740;45.944;12.480;2022-12-07T14:17:28;6.80;;;1.52;;
40997;SDS011;26740;45.944;12.480;2022-12-07T14:19:55;3.05;;;1.35;;
40997;SDS011;26740;45.944;12.480;2022-12-07T14:22:29;2.95;;;1.52;;
40997;SDS011;26740;45.944;12.480;2022-12-07T14:25:22;3.47;;;1.40;;
40997;SDS011;26740;45.944;12.480;2022-12-07T14:30:24;1.85;;;1.02;;
40997;SDS011;26740;45.944;12.480;2022-12-07T14:33:02;2.75;;;1.42;;
40997;SDS011;26740;45.944;12.480;2022-12-07T14:35:29;3.00;;;1.13;;
40997;SDS011;26740;45.944;12.480;2022-12-07T14:37:56;4.53;;;1.98;;
40997;SDS011;26740;45.944;12.480;2022-12-07T14:40:23;3.47;;;1.38;;
40997;SDS011;26740;45.944;12.480;2022-12-07T14:43:02;3.53;;;1.27;;
40997;SDS011;26740;45.944;12.480;2022-12-07T14:45:48;2.40;;;1.38;;
40997;SDS011;26740;45.944;12.480;2022-12-07T14:48:14;2.38;;;1.17;;
40997;SDS011;26740;45.944;12.480;2022-12-07T14:50:42;3.50;;;1.20;;
40997;SDS011;26740;45.944;12.480;2022-12-07T14:53:14;4.90;;;1.10;;
40997;SDS011;26740;45.944;12.480;2022-12-07T14:55:42;6.95;;;1.17;;
40997;SDS011;26740;45.944;12.480;2022-12-07T14:58:12;4.72;;;1.27;;
40997;SDS011;26740;45.944;12.480;2022-12-07T15:00:39;2.83;;;1.30;;
40997;SDS011;26740;45.944;12.480;2022-12-07T15:03:05;4.57;;;1.13;;
40997;SDS011;26740;45.944;12.480;2022-12-07T15:05:31;2.67;;;1.73;;
40997;SDS011;26740;45.944;12.480;2022-12-07T15:07:58;1.85;;;0.98;;
40997;SDS011;26740;45.944;12.480;2022-12-07T15:10:25;4.28;;;1.60;;
40997;SDS011;26740;45.944;12.480;2022-12-07T15:12:57;3.92;;;1.55;;
40997;SDS011;26740;45.944;12.480;2022-12-07T15:15:43;4.28;;;1.15;;
40997;SDS011;26740;45.944;12.480;2022-12-07T15:18:09;5.35;;;1.40;;
40997;SDS011;26740;45.944;12.480;2022-12-07T15:20:35;4.43;;;1.30;;
40997;SDS011;26740;45.944;12.480;2022-12-07T15:23:00;2.53;;;1.15;;
40997;SDS011;26740;45.944;12.480;2022-12-07T15:25:26;3.13;;;1.52;;
40997;SDS011;26740;45.944;12.480;2022-12-07T15:27:52;2.53;;;1.65;;
40997;SDS011;26740;45.944;12.480;2022-12-07T15:30:17;7.18;;;1.90;;
40997;SDS011;26740;45.944;12.480;2022-12-07T15:32:43;3.35;;;1.60;;
40997;SDS011;26740;45.944;12.480;2022-12-07T15:35:08;2.38;;;1.15;;
40997;SDS011;26740;45.944;12.480;2022-12-07T15:37:34;4.63;;;1.33;;
40997;SDS011;26740;45.944;12.480;2022-12-07T15:40:00;3.58;;;2.03;;
40997;SDS011;26740;45.944;12.480;2022-12-07T15:42:26;11.90;;;3.70;;
40997;SDS011;26740;45.944;12.480;2022-12-07T15:44:51;7.45;;;3.72;;
40997;SDS011;26740;45.944;12.480;2022-12-07T15:47:33;16.38;;;7.00;;
40997;SDS011;26740;45.944;12.480;2022-12-07T15:50:02;16.75;;;6.65;;
40997;SDS011;26740;45.944;12.480;2022-12-07T15:52:29;20.95;;;7.03;;
40997;SDS011;26740;45.944;12.480;2022-12-07T15:54:56;17.45;;;7.10;;
40997;SDS011;26740;45.944;12.480;2022-12-07T15:57:21;12.32;;;6.95;;
40997;SDS011;26740;45.944;12.480;2022-12-07T15:59:47;25.60;;;8.65;;
40997;SDS011;26740;45.944;12.480;2022-12-07T16:02:12;25.73;;;8.93;;
40997;SDS011;26740;45.944;12.480;2022-12-07T16:04:38;21.15;;;9.27;;
40997;SDS011;26740;45.944;12.480;2022-12-07T16:07:04;23.42;;;11.52;;
40997;SDS011;26740;45.944;12.480;2022-12-07T16:09:30;40.80;;;15.80;;
40997;SDS011;26740;45.944;12.480;2022-12-07T16:11:56;39.15;;;19.45;;
40997;SDS011;26740;45.944;12.480;2022-12-07T16:14:22;45.05;;;22.05;;
40997;SDS011;26740;45.944;12.480;2022-12-07T16:16:48;34.63;;;16.20;;
40997;SDS011;26740;45.944;12.480;2022-12-07T16:19:14;31.80;;;15.50;;
40997;SDS011;26740;45.944;12.480;2022-12-07T16:21:40;32.92;;;16.00;;
40997;SDS011;26740;45.944;12.480;2022-12-07T16:24:07;44.75;;;18.45;;
40997;SDS011;26740;45.944;12.480;2022-12-07T16:26:35;34.65;;;16.45;;
40997;SDS011;26740;45.944;12.480;2022-12-07T16:29:01;27.30;;;14.13;;
40997;SDS011;26740;45.944;12.480;2022-12-07T16:31:27;32.72;;;14.10;;
40997;SDS011;26740;45.944;12.480;2022-12-07T16:33:53;28.17;;;13.00;;
40997;SDS011;26740;45.944;12.480;2022-12-07T16:36:21;24.17;;;13.02;;
40997;SDS011;26740;45.944;12.480;2022-12-07T16:38:49;34.03;;;14.15;;
40997;SDS011;26740;45.944;12.480;2022-12-07T16:41:16;26.65;;;12.73;;
40997;SDS011;26740;45.944;12.480;2022-12-07T16:43:41;21.27;;;10.82;;
40997;SDS011;26740;45.944;12.480;2022-12-07T16:46:07;30.00;;;13.25;;
40997;SDS011;26740;45.944;12.480;2022-12-07T16:48:36;25.98;;;12.88;;
40997;SDS011;26740;45.944;12.480;2022-12-07T16:53:36;24.60;;;10.98;;
40997;SDS011;26740;45.944;12.480;2022-12-07T16:56:05;18.40;;;9.70;;
40997;SDS011;26740;45.944;12.480;2022-12-07T16:58:36;20.25;;;9.68;;
40997;SDS011;26740;45.944;12.480;2022-12-07T17:01:08;21.20;;;9.50;;
40997;SDS011;26740;45.944;12.480;2022-12-07T17:03:35;19.60;;;8.77;;
40997;SDS011;26740;45.944;12.480;2022-12-07T17:06:01;16.85;;;8.02;;
40997;SDS011;26740;45.944;12.480;2022-12-07T17:08:26;22.70;;;9.80;;
40997;SDS011;26740;45.944;12.480;2022-12-07T17:10:52;23.05;;;9.07;;
40997;SDS011;26740;45.944;12.480;2022-12-07T17:13:18;20.10;;;10.07;;
40997;SDS011;26740;45.944;12.480;2022-12-07T17:16:02;33.60;;;12.80;;
40997;SDS011;26740;45.944;12.480;2022-12-07T17:18:31;22.42;;;10.68;;